Time;durP1;ratioP1;P1;durP2;ratioP2;P2;SDS_P1;SDS_P2;PMS_P1;PMS_P2;Temp;Humidity;BMP_temperature;BMP_pressure;BME280_temperature;BME280_humidity;BME280_pressure;Samples;Min_cycle;Max_cycle;Signal;HPM_P1;HPM_P2
2024/02/15 08:57:43;;;;;;;1.77;0.40;;;15.10;99.90;;;;;;4642784;27;20595;-82
2024/02/15 09:00:14;;;;;;;1.20;0.47;;;15.10;99.90;;;;;;4913476;29;20641;-85
2024/02/15 09:02:41;;;;;;;2.40;0.60;;;15.10;99.90;;;;;;4915523;29;20684;-82
2024/02/15 09:05:08;;;;;;;1.03;0.40;;;15.10;99.90;;;;;;4916749;29;20210;-82
2024/02/15 09:07:36;;;;;;;1.07;0.53;;;15.20;99.90;;;;;;4916906;29;20205;-82
2024/02/15 09:10:03;;;;;;;1.47;0.40;;;15.10;99.90;;;;;;4916739;29;20240;-81
2024/02/15 09:12:31;;;;;;;2.53;0.40;;;15.20;99.90;;;;;;4917391;29;20220;-85
2024/02/15 09:14:59;;;;;;;0.93;0.60;;;15.30;99.90;;;;;;4926224;29;20273;-81
2024/02/15 09:17:26;;;;;;;2.20;0.50;;;15.20;99.90;;;;;;4920937;29;20639;-82
2024/02/15 09:19:54;;;;;;;1.00;0.40;;;15.20;99.90;;;;;;4919565;29;20538;-81
2024/02/15 09:22:21;;;;;;;1.80;0.60;;;15.20;99.90;;;;;;4918380;29;20265;-82
2024/02/15 09:24:48;;;;;;;2.10;0.70;;;15.40;99.90;;;;;;4923824;29;20245;-83
2024/02/15 09:27:14;;;;;;;1.57;0.50;;;15.50;99.90;;;;;;4929932;29;20233;-80
2024/02/15 09:29:42;;;;;;;0.97;0.43;;;15.60;99.90;;;;;;4930920;29;20847;-78
2024/02/15 09:32:10;;;;;;;1.67;0.50;;;15.70;99.90;;;;;;4929577;29;20213;-85
2024/02/15 09:34:37;;;;;;;2.53;0.57;;;15.70;99.90;;;;;;4928255;29;20273;-84
2024/02/15 09:37:04;;;;;;;1.73;0.50;;;15.90;99.90;;;;;;4925709;29;20209;-81
2024/02/15 09:39:31;;;;;;;2.95;0.55;;;15.90;99.90;;;;;;4928705;29;20677;-84
2024/02/15 09:41:59;;;;;;;1.15;0.40;;;15.90;99.90;;;;;;4927924;29;20744;-81
2024/02/15 09:44:28;;;;;;;1.80;0.50;;;16.00;99.90;;;;;;4931616;29;20238;-83
2024/02/15 09:47:04;;;;;;;2.80;0.47;;;16.00;99.90;;;;;;4930949;29;20304;-85
2024/02/15 09:49:38;;;;;;;2.88;0.80;;;16.00;99.90;;;;;;4928251;29;20237;-82
2024/02/15 09:52:08;;;;;;;0.98;0.50;;;16.00;99.90;;;;;;4922701;29;20625;-84
2024/02/15 09:54:36;;;;;;;1.77;0.80;;;16.10;99.90;;;;;;4919938;29;20313;-84
2024/02/15 09:57:03;;;;;;;0.80;0.43;;;16.30;99.90;;;;;;4919720;29;20620;-81
2024/02/15 09:59:31;;;;;;;1.00;0.60;;;16.60;99.90;;;;;;4920001;29;20284;-81
2024/02/15 10:02:00;;;;;;;1.95;0.50;;;16.90;99.90;;;;;;4920862;29;20727;-84
2024/02/15 10:04:27;;;;;;;1.25;0.60;;;17.00;99.90;;;;;;4919402;29;20715;-83
2024/02/15 10:06:55;;;;;;;1.23;0.50;;;17.20;99.90;;;;;;4920485;29;20212;-85
2024/02/15 10:09:28;;;;;;;0.65;0.35;;;17.10;99.90;;;;;;4919770;29;20281;-82
2024/02/15 10:11:57;;;;;;;1.70;0.50;;;17.10;99.90;;;;;;4919508;29;20222;-84
2024/02/15 10:14:24;;;;;;;0.90;0.50;;;16.80;99.90;;;;;;4919113;29;20229;-84
2024/02/15 10:16:51;;;;;;;3.08;0.60;;;16.70;99.90;;;;;;4919330;29;20210;-82
2024/02/15 10:19:20;;;;;;;2.95;0.57;;;16.50;99.90;;;;;;4919008;29;20220;-83
2024/02/15 10:21:47;;;;;;;3.08;0.93;;;16.50;99.90;;;;;;4919226;29;20220;-83
2024/02/15 10:24:15;;;;;;;1.73;0.77;;;16.60;99.90;;;;;;4918591;29;20264;-83
2024/02/15 10:26:42;;;;;;;1.27;0.60;;;16.60;99.90;;;;;;4918872;29;20288;-84
2024/02/15 10:29:10;;;;;;;1.30;0.50;;;16.70;99.90;;;;;;4919156;29;20237;-84
2024/02/15 10:31:40;;;;;;;2.80;0.60;;;16.70;99.90;;;;;;4918774;29;20216;-84
2024/02/15 10:34:08;;;;;;;0.50;0.40;;;16.80;99.90;;;;;;4919126;29;20246;-83
2024/02/15 10:36:35;;;;;;;2.97;0.65;;;17.00;99.90;;;;;;4917532;29;20684;-83
2024/02/15 10:39:20;;;;;;;2.13;0.60;;;16.90;99.90;;;;;;4919312;29;20296;-76
2024/02/15 10:41:47;;;;;;;0.73;0.40;;;16.90;99.90;;;;;;4911486;29;20209;-82
2024/02/15 10:44:18;;;;;;;2.15;0.52;;;16.80;99.90;;;;;;4917166;29;20229;-79
2024/02/15 10:46:46;;;;;;;1.50;0.65;;;17.00;99.90;;;;;;4916898;29;20220;-84
2024/02/15 10:49:14;;;;;;;0.40;0.30;;;17.10;99.90;;;;;;4915278;29;20229;-84
2024/02/15 10:51:45;;;;;;;0.82;0.50;;;17.10;99.90;;;;;;4915737;29;20202;-79
2024/02/15 10:54:17;;;;;;;0.93;0.47;;;17.10;99.90;;;;;;4915959;29;20232;-75
2024/02/15 10:56:50;;;;;;;1.02;0.60;;;17.10;99.90;;;;;;4911004;29;20209;-80
2024/02/15 10:59:19;;;;;;;2.05;0.75;;;17.10;99.90;;;;;;4913395;29;20205;-79
2024/02/15 11:01:48;;;;;;;0.73;0.50;;;17.10;99.90;;;;;;4913608;29;20237;-78
2024/02/15 11:04:16;;;;;;;2.53;0.50;;;17.00;99.90;;;;;;4913027;29;20587;-78
2024/02/15 11:06:44;;;;;;;0.47;0.32;;;16.90;99.90;;;;;;4915344;29;20206;-78
2024/02/15 11:09:15;;;;;;;0.90;0.40;;;16.90;99.90;;;;;;4916735;29;20696;-77
2024/02/15 11:11:44;;;;;;;0.65;0.43;;;17.00;99.90;;;;;;4897431;29;20270;-81
2024/02/15 11:14:29;;;;;;;1.75;0.43;;;17.00;99.90;;;;;;4912539;29;20233;-78
2024/02/15 11:16:57;;;;;;;0.70;0.40;;;17.20;99.90;;;;;;4916738;29;20209;-85
2024/02/15 11:19:46;;;;;;;1.60;0.50;;;17.30;99.90;;;;;;4915095;29;20296;-78
2024/02/15 11:22:15;;;;;;;1.85;0.73;;;17.30;99.90;;;;;;4916409;29;20221;-79
2024/02/15 11:24:49;;;;;;;3.25;1.02;;;17.20;99.90;;;;;;4916001;29;20572;-81
2024/02/15 11:27:27;;;;;;;16.73;5.05;;;17.30;99.90;;;;;;4916606;29;20217;-78
2024/02/15 11:29:58;;;;;;;4.78;2.33;;;17.30;99.90;;;;;;4915721;29;20240;-79
2024/02/15 11:32:43;;;;;;;5.55;2.50;;;17.60;99.90;;;;;;4916601;29;20221;-80
2024/02/15 11:35:14;;;;;;;6.50;2.20;;;17.80;99.90;;;;;;4916913;29;20300;-79
2024/02/15 11:38:04;;;;;;;3.60;1.80;;;17.90;99.90;;;;;;4915833;29;20218;-81
2024/02/15 11:41:03;;;;;;;5.60;2.30;;;17.80;99.90;;;;;;4915945;29;20218;-81
2024/02/15 11:43:54;;;;;;;4.57;1.85;;;17.80;99.90;;;;;;4916218;29;20289;-83
2024/02/15 11:46:25;;;;;;;2.80;1.10;;;17.90;99.90;;;;;;4917722;29;20665;-84
2024/02/15 11:48:53;;;;;;;6.75;2.22;;;18.00;99.90;;;;;;4917096;29;20233;-82
2024/02/15 11:51:31;;;;;;;2.35;1.40;;;17.90;99.90;;;;;;4916991;29;20581;-83
2024/02/15 11:54:06;;;;;;;3.60;2.28;;;17.80;99.90;;;;;;4917016;29;20248;-86
2024/02/15 11:56:51;;;;;;;6.35;3.25;;;17.90;99.90;;;;;;4917600;29;20300;-85
2024/02/15 11:59:28;;;;;;;10.35;6.32;;;17.80;99.90;;;;;;4916604;29;20263;-80
2024/02/15 12:18:45;;;;;;;1.45;1.10;;;18.30;99.90;;;;;;4917027;29;20208;-80
2024/02/15 12:21:17;;;;;;;2.20;1.40;;;18.30;99.90;;;;;;4917278;29;20617;-80
2024/02/15 12:23:45;;;;;;;2.15;0.80;;;18.20;99.90;;;;;;4916527;29;20277;-80
2024/02/15 12:26:14;;;;;;;3.03;1.30;;;18.10;99.90;;;;;;4916475;29;20217;-80
2024/02/15 12:28:42;;;;;;;6.55;2.45;;;18.00;99.90;;;;;;4916117;29;20236;-80
2024/02/15 12:31:13;;;;;;;3.55;1.77;;;18.00;99.90;;;;;;4916782;29;20224;-80
2024/02/15 12:33:40;;;;;;;4.88;2.20;;;18.00;99.90;;;;;;4916016;29;20229;-80
2024/02/15 12:36:09;;;;;;;3.70;2.00;;;18.00;99.90;;;;;;4916473;29;20286;-80
2024/02/15 12:38:37;;;;;;;1.95;1.00;;;17.90;99.90;;;;;;4915922;29;20683;-80
2024/02/15 12:41:05;;;;;;;6.60;2.33;;;17.90;99.90;;;;;;4916423;29;20209;-80
2024/02/15 12:43:32;;;;;;;3.80;1.80;;;17.90;99.90;;;;;;4916025;29;20237;-80
2024/02/15 12:45:59;;;;;;;4.63;1.65;;;18.00;99.90;;;;;;4916062;29;20297;-80
2024/02/15 12:48:26;;;;;;;1.13;0.50;;;18.10;99.90;;;;;;4915817;29;20665;-79
2024/02/15 12:50:54;;;;;;;8.73;3.78;;;18.20;99.90;;;;;;4916437;29;20241;-80
2024/02/15 12:53:26;;;;;;;2.30;1.15;;;18.50;99.90;;;;;;4915985;29;20240;-80
2024/02/15 12:55:56;;;;;;;1.45;0.93;;;18.50;99.90;;;;;;4916862;29;20221;-80
2024/02/15 12:58:26;;;;;;;7.60;3.70;;;18.40;99.90;;;;;;4915924;29;20209;-80
2024/02/15 13:00:58;;;;;;;0.85;0.50;;;18.70;99.90;;;;;;4916463;29;20220;-80
2024/02/15 13:03:25;;;;;;;1.60;0.73;;;18.60;99.90;;;;;;4915371;29;20261;-80
2024/02/15 13:05:52;;;;;;;1.98;0.98;;;18.70;99.90;;;;;;4916644;29;20284;-80
2024/02/15 13:08:19;;;;;;;0.85;0.63;;;18.80;99.90;;;;;;4916764;29;20210;-80
2024/02/15 13:10:48;;;;;;;1.02;0.60;;;18.80;99.90;;;;;;4918128;29;20233;-81
2024/02/15 13:13:16;;;;;;;1.17;0.60;;;18.80;99.90;;;;;;4917485;29;20724;-81
2024/02/15 13:15:43;;;;;;;2.05;0.50;;;18.70;99.90;;;;;;4920508;29;20229;-80
2024/02/15 13:18:13;;;;;;;0.60;0.45;;;18.50;99.90;;;;;;4923009;29;20665;-80
2024/02/15 13:20:40;;;;;;;1.20;0.52;;;18.60;99.90;;;;;;4921994;29;20205;-80
2024/02/15 13:23:14;;;;;;;1.95;0.90;;;18.80;99.90;;;;;;4921341;29;20257;-80
2024/02/15 13:25:43;;;;;;;0.73;0.57;;;18.90;99.90;;;;;;4922762;29;20300;-80
2024/02/15 13:28:12;;;;;;;0.57;0.40;;;18.80;99.90;;;;;;4924468;29;20627;-80
2024/02/15 13:30:41;;;;;;;0.63;0.40;;;18.80;99.90;;;;;;4923070;29;20238;-80
2024/02/15 13:33:08;;;;;;;0.90;0.38;;;18.60;99.90;;;;;;4921564;29;20637;-81
2024/02/15 13:35:36;;;;;;;0.50;0.30;;;18.70;99.90;;;;;;4922544;29;20216;-80
2024/02/15 13:38:03;;;;;;;1.48;0.40;;;18.60;99.90;;;;;;4920471;29;20213;-80
2024/02/15 13:40:31;;;;;;;0.95;0.50;;;18.40;99.90;;;;;;4921669;29;20301;-81
2024/02/15 13:42:59;;;;;;;0.55;0.30;;;18.50;99.90;;;;;;4920402;29;20232;-80
2024/02/15 13:45:32;;;;;;;3.42;0.73;;;18.50;99.90;;;;;;4922125;29;20248;-80
2024/02/15 13:48:00;;;;;;;1.20;0.47;;;18.40;99.90;;;;;;4922310;29;20213;-79
2024/02/15 13:50:29;;;;;;;0.60;0.30;;;18.30;99.90;;;;;;4921477;29;20233;-82
2024/02/15 13:52:57;;;;;;;1.13;0.60;;;18.30;99.90;;;;;;4918588;29;20320;-82
2024/02/15 13:55:25;;;;;;;1.92;0.45;;;18.50;99.90;;;;;;4919196;29;20208;-81
2024/02/15 13:57:53;;;;;;;0.73;0.40;;;18.50;99.90;;;;;;4919604;29;20219;-80
2024/02/15 14:00:29;;;;;;;1.33;0.38;;;18.40;99.90;;;;;;4920522;29;20237;-80
2024/02/15 14:02:59;;;;;;;0.77;0.50;;;18.30;99.90;;;;;;4919119;29;20256;-80
2024/02/15 14:05:28;;;;;;;2.05;0.65;;;18.20;99.90;;;;;;4918785;29;20576;-80
2024/02/15 14:07:57;;;;;;;4.97;0.50;;;18.20;99.90;;;;;;4918519;29;20290;-80
2024/02/15 14:10:25;;;;;;;0.90;0.50;;;18.10;99.90;;;;;;4919022;29;20410;-80
2024/02/15 14:12:55;;;;;;;3.50;0.40;;;18.00;99.90;;;;;;4918969;29;20645;-80
2024/02/15 14:15:22;;;;;;;1.48;0.40;;;17.80;99.90;;;;;;4922208;29;20221;-81
2024/02/15 14:17:49;;;;;;;1.33;0.57;;;17.90;99.90;;;;;;4918846;29;20301;-81
2024/02/15 14:20:18;;;;;;;0.40;0.30;;;17.90;99.90;;;;;;4919441;29;20209;-81
2024/02/15 14:22:49;;;;;;;1.25;0.50;;;18.00;99.90;;;;;;4920982;29;20568;-81
2024/02/15 14:25:15;;;;;;;1.95;0.40;;;18.00;99.90;;;;;;4919813;29;20205;-81
2024/02/15 14:27:43;;;;;;;0.32;0.22;;;18.00;99.90;;;;;;4919586;29;20625;-80
2024/02/15 14:33:03;;;;;;;1.00;0.40;;;18.10;99.90;;;;;;4918913;29;20284;-80
2024/02/15 14:35:34;;;;;;;0.98;0.40;;;18.10;99.90;;;;;;4918916;29;20245;-81
2024/02/15 14:38:05;;;;;;;1.10;0.32;;;18.00;99.90;;;;;;4917710;29;20440;-81
2024/02/15 14:40:32;;;;;;;1.17;0.30;;;18.00;99.90;;;;;;4917166;29;20273;-81
2024/02/15 14:42:59;;;;;;;0.57;0.35;;;17.90;99.90;;;;;;4918296;29;20237;-81
2024/02/15 14:45:26;;;;;;;2.50;0.50;;;17.80;99.90;;;;;;4917934;29;20296;-81
2024/02/15 14:47:53;;;;;;;0.50;0.38;;;17.90;99.90;;;;;;4918031;29;20212;-81
2024/02/15 14:50:23;;;;;;;1.05;0.47;;;17.80;99.90;;;;;;4918712;29;20241;-81
2024/02/15 14:52:52;;;;;;;1.25;0.43;;;17.80;99.90;;;;;;4919472;29;20233;-81
2024/02/15 14:55:20;;;;;;;0.70;0.40;;;17.90;99.90;;;;;;4917197;29;20214;-81
2024/02/15 14:57:47;;;;;;;0.68;0.40;;;17.80;99.90;;;;;;4918323;29;20304;-81
2024/02/15 15:00:17;;;;;;;3.08;0.60;;;17.90;99.90;;;;;;4918352;29;20568;-81
2024/02/15 15:02:46;;;;;;;0.40;0.30;;;18.00;99.90;;;;;;4918827;29;20235;-81
2024/02/15 15:13:29;;;;;;;0.57;0.30;;;18.10;99.90;;;;;;4917878;29;20609;-80
2024/02/15 15:15:56;;;;;;;0.95;0.30;;;18.00;99.90;;;;;;4917739;29;20301;-80
2024/02/15 15:18:23;;;;;;;2.10;0.50;;;17.90;99.90;;;;;;4917795;29;20210;-81
2024/02/15 15:20:50;;;;;;;0.60;0.30;;;17.70;99.90;;;;;;4917761;29;20249;-81
2024/02/15 15:23:19;;;;;;;0.90;0.40;;;17.60;99.90;;;;;;4918086;29;20229;-80
2024/02/15 15:25:46;;;;;;;0.90;0.47;;;17.40;99.90;;;;;;4917588;29;20210;-79
2024/02/15 15:28:14;;;;;;;1.27;0.43;;;17.50;99.90;;;;;;4917910;29;20205;-80
2024/02/15 15:30:42;;;;;;;1.05;0.30;;;17.60;99.90;;;;;;4917776;29;20237;-79
2024/02/15 15:33:09;;;;;;;0.77;0.50;;;17.60;99.90;;;;;;4917658;29;20316;-81
2024/02/15 15:35:35;;;;;;;0.70;0.50;;;17.60;99.90;;;;;;4917756;29;20589;-80
2024/02/15 15:38:03;;;;;;;0.88;0.40;;;17.50;99.90;;;;;;4917386;29;20298;-81
2024/02/15 15:40:33;;;;;;;1.58;0.30;;;17.40;99.90;;;;;;4916744;29;20253;-80
2024/02/15 15:43:00;;;;;;;0.77;0.55;;;17.40;99.90;;;;;;4912342;29;20237;-82
2024/02/15 15:45:27;;;;;;;0.60;0.47;;;17.40;99.90;;;;;;4917467;29;20610;-82
2024/02/15 15:47:54;;;;;;;0.52;0.20;;;17.30;99.90;;;;;;4916934;29;20210;-81
2024/02/15 15:50:21;;;;;;;0.52;0.40;;;17.30;99.90;;;;;;4917334;29;20241;-82
2024/02/15 15:52:48;;;;;;;0.75;0.40;;;17.20;99.90;;;;;;4917431;29;20315;-82
2024/02/15 15:55:15;;;;;;;0.75;0.32;;;17.10;99.90;;;;;;4917769;29;20296;-82
2024/02/15 15:57:44;;;;;;;2.25;0.60;;;17.00;99.90;;;;;;4917201;29;20256;-83
2024/02/15 16:00:12;;;;;;;1.50;0.40;;;16.80;99.90;;;;;;4922130;29;20301;-83
2024/02/15 16:02:41;;;;;;;0.82;0.50;;;16.80;99.90;;;;;;4918980;29;20233;-82
2024/02/15 16:05:11;;;;;;;2.65;0.50;;;16.60;99.90;;;;;;4914433;29;20561;-83
2024/02/15 16:07:40;;;;;;;0.57;0.40;;;16.50;99.90;;;;;;4913509;29;20269;-83
2024/02/15 16:10:10;;;;;;;0.63;0.40;;;16.50;99.90;;;;;;4917909;29;20213;-82
2024/02/15 16:12:38;;;;;;;0.40;0.35;;;16.60;99.90;;;;;;4915253;29;20605;-83
2024/02/15 16:15:08;;;;;;;0.63;0.40;;;16.60;99.90;;;;;;4916954;29;20292;-83
2024/02/15 16:17:36;;;;;;;1.63;0.50;;;16.60;99.90;;;;;;4917257;29;20205;-83
2024/02/15 16:20:05;;;;;;;0.43;0.30;;;16.60;99.90;;;;;;4917619;29;20225;-83
2024/02/15 16:22:32;;;;;;;2.08;0.50;;;16.40;99.90;;;;;;4917150;29;20305;-83
2024/02/15 16:25:02;;;;;;;1.25;0.60;;;16.20;99.90;;;;;;4917261;29;20224;-83
2024/02/15 16:27:29;;;;;;;0.60;0.37;;;15.90;99.90;;;;;;4917242;29;20669;-83
2024/02/15 16:29:56;;;;;;;1.13;0.50;;;15.90;99.90;;;;;;4917108;29;20209;-83
2024/02/15 16:32:25;;;;;;;1.13;0.60;;;15.80;99.90;;;;;;4917105;29;20301;-83
2024/02/15 16:34:54;;;;;;;2.00;0.70;;;15.70;99.90;;;;;;4917348;29;20393;-82
2024/02/15 16:37:21;;;;;;;1.40;0.50;;;15.70;99.90;;;;;;4917286;29;20206;-82
2024/02/15 16:39:48;;;;;;;4.10;0.70;;;15.80;99.90;;;;;;4917765;29;20296;-83
2024/02/15 16:42:15;;;;;;;0.80;0.40;;;15.70;99.90;;;;;;4917805;29;20399;-83
2024/02/15 16:44:42;;;;;;;1.07;0.60;;;15.80;99.90;;;;;;4918934;29;20305;-82
2024/02/15 16:47:09;;;;;;;2.70;0.60;;;15.70;99.90;;;;;;4918393;29;20206;-83
2024/02/15 16:49:38;;;;;;;1.23;0.70;;;15.70;99.90;;;;;;4918484;29;20296;-83
2024/02/15 16:52:05;;;;;;;2.53;0.80;;;15.70;99.90;;;;;;4924272;29;20284;-83
2024/02/15 16:54:32;;;;;;;2.20;0.63;;;15.70;99.90;;;;;;4921346;29;20756;-83
2024/02/15 16:56:59;;;;;;;1.53;0.80;;;15.70;99.90;;;;;;4921215;29;20661;-83
2024/02/15 16:59:26;;;;;;;1.70;0.77;;;15.70;99.90;;;;;;4921412;29;20206;-83
2024/02/15 17:01:53;;;;;;;1.57;0.63;;;15.70;99.90;;;;;;4920920;29;20308;-83
2024/02/15 17:04:20;;;;;;;1.17;0.70;;;15.60;99.90;;;;;;4920793;29;20707;-83
2024/02/15 17:06:51;;;;;;;1.17;0.70;;;15.40;99.90;;;;;;4921047;29;20300;-83
2024/02/15 17:09:17;;;;;;;1.90;0.60;;;15.40;99.90;;;;;;4921074;29;20209;-83
2024/02/15 17:11:46;;;;;;;2.00;0.60;;;15.20;99.90;;;;;;4920039;29;20324;-83
2024/02/15 17:14:14;;;;;;;1.00;0.47;;;15.20;99.90;;;;;;4920389;29;20241;-83
2024/02/15 17:16:42;;;;;;;2.40;1.23;;;15.10;99.90;;;;;;4920376;29;20210;-82
2024/02/15 17:19:09;;;;;;;1.47;0.60;;;15.10;99.90;;;;;;4920660;29;20213;-82
2024/02/15 17:21:40;;;;;;;1.20;0.70;;;15.10;99.90;;;;;;4920451;29;20296;-83
2024/02/15 17:24:09;;;;;;;1.80;0.60;;;15.10;99.90;;;;;;4920442;29;20608;-83
2024/02/15 17:26:37;;;;;;;2.37;0.73;;;15.10;99.90;;;;;;4920197;29;20277;-83
2024/02/15 17:29:08;;;;;;;1.40;0.90;;;15.10;99.90;;;;;;4920196;29;20304;-83
2024/02/15 17:31:35;;;;;;;3.50;0.90;;;15.20;99.90;;;;;;4919757;29;20240;-83
2024/02/15 17:34:02;;;;;;;1.30;0.77;;;15.20;99.90;;;;;;4919941;29;20719;-83
2024/02/15 17:36:29;;;;;;;1.80;0.90;;;15.20;99.90;;;;;;4919857;29;20210;-83
2024/02/15 17:38:56;;;;;;;1.17;0.77;;;15.20;99.90;;;;;;4919940;29;20304;-83
2024/02/15 17:41:24;;;;;;;1.83;0.87;;;15.10;99.90;;;;;;4920149;29;20206;-83
2024/02/15 17:43:56;;;;;;;0.97;0.60;;;15.10;99.90;;;;;;4919808;29;20265;-83
2024/02/15 17:46:24;;;;;;;1.13;0.70;;;15.20;99.90;;;;;;4919831;29;20209;-83
2024/02/15 17:48:50;;;;;;;1.67;0.87;;;15.20;99.90;;;;;;4919750;29;20210;-83
2024/02/15 17:51:17;;;;;;;1.67;0.90;;;15.20;99.90;;;;;;4919644;29;20241;-83
2024/02/15 17:53:45;;;;;;;2.70;0.90;;;15.00;99.90;;;;;;4919695;29;20358;-83
2024/02/15 17:56:14;;;;;;;2.47;1.27;;;14.90;99.90;;;;;;4919691;29;20296;-82
2024/02/15 17:58:44;;;;;;;1.20;0.80;;;15.00;99.90;;;;;;4919601;29;20237;-82
2024/02/15 18:01:11;;;;;;;0.70;0.60;;;15.00;99.90;;;;;;4919050;29;20209;-83
2024/02/15 18:03:38;;;;;;;0.70;0.40;;;15.00;99.90;;;;;;4918762;29;20233;-84
2024/02/15 18:06:07;;;;;;;1.37;0.70;;;14.90;99.90;;;;;;4919934;29;20326;-83
2024/02/15 18:08:34;;;;;;;2.93;0.60;;;14.80;99.90;;;;;;4919722;29;20217;-82
2024/02/15 18:11:01;;;;;;;2.73;0.63;;;14.70;99.90;;;;;;4919315;29;20320;-82
2024/02/15 18:13:28;;;;;;;2.87;0.60;;;14.70;99.90;;;;;;4919218;29;20693;-83
2024/02/15 18:15:57;;;;;;;0.70;0.50;;;14.60;99.90;;;;;;4919512;29;20221;-82
2024/02/15 18:18:25;;;;;;;1.53;0.60;;;14.60;99.90;;;;;;4919678;29;20570;-83
2024/02/15 18:20:52;;;;;;;2.47;0.87;;;14.50;99.90;;;;;;4919243;29;20553;-82
2024/02/15 18:23:19;;;;;;;2.63;0.70;;;14.40;99.90;;;;;;4919522;29;20326;-83
2024/02/15 18:25:46;;;;;;;3.57;0.80;;;14.40;99.90;;;;;;4919631;29;20342;-82
2024/02/15 18:28:14;;;;;;;1.90;0.90;;;14.40;99.90;;;;;;4919764;29;20301;-82
2024/02/15 18:30:43;;;;;;;1.70;1.00;;;14.40;99.90;;;;;;4919585;29;20261;-82
2024/02/15 18:33:14;;;;;;;2.13;1.10;;;14.30;99.90;;;;;;4919643;29;20270;-82
2024/02/15 18:35:43;;;;;;;2.63;0.83;;;14.30;99.90;;;;;;4920310;29;20209;-83
2024/02/15 18:38:10;;;;;;;3.10;1.00;;;14.30;99.90;;;;;;4919344;29;20205;-82
2024/02/15 18:40:38;;;;;;;1.43;0.67;;;14.40;99.90;;;;;;4919205;29;20316;-81
2024/02/15 18:43:05;;;;;;;1.53;0.70;;;14.40;99.90;;;;;;4919240;29;20238;-83
2024/02/15 18:45:32;;;;;;;1.63;0.70;;;14.30;99.90;;;;;;4919739;29;20663;-82
2024/02/15 18:48:00;;;;;;;3.33;0.90;;;14.30;99.90;;;;;;4919796;29;20240;-82
2024/02/15 18:50:29;;;;;;;1.77;0.90;;;14.30;99.90;;;;;;4919830;29;20256;-83
2024/02/15 18:52:56;;;;;;;1.37;0.70;;;14.20;99.90;;;;;;4919057;29;20245;-82
2024/02/15 18:55:25;;;;;;;1.17;0.50;;;14.30;99.90;;;;;;4920216;29;20625;-82
2024/02/15 18:57:52;;;;;;;2.27;0.67;;;14.30;99.90;;;;;;4919372;29;20218;-81
2024/02/15 19:00:21;;;;;;;8.03;1.10;;;14.30;99.90;;;;;;4919087;29;20676;-82
2024/02/15 19:02:50;;;;;;;2.30;0.73;;;14.30;99.90;;;;;;4919034;29;20230;-83
2024/02/15 19:05:21;;;;;;;1.10;0.70;;;14.30;99.90;;;;;;4919358;29;20422;-82
2024/02/15 19:07:49;;;;;;;2.60;0.90;;;14.30;99.90;;;;;;4919018;29;20213;-83
2024/02/15 19:10:17;;;;;;;1.20;0.70;;;14.20;99.90;;;;;;4919140;29;20216;-82
2024/02/15 19:12:44;;;;;;;2.67;0.87;;;14.30;99.90;;;;;;4918715;29;20273;-82
2024/02/15 19:15:12;;;;;;;0.80;0.57;;;14.30;99.90;;;;;;4918864;29;20292;-82
2024/02/15 19:17:41;;;;;;;0.93;0.60;;;14.10;99.90;;;;;;4919082;29;20226;-82
2024/02/15 19:20:09;;;;;;;2.77;0.70;;;14.10;99.90;;;;;;4918449;29;20209;-83
2024/02/15 19:22:36;;;;;;;0.80;0.60;;;14.10;99.90;;;;;;4918639;29;20240;-83
2024/02/15 19:25:06;;;;;;;1.70;0.70;;;14.10;99.90;;;;;;4918960;29;20728;-82
2024/02/15 19:27:33;;;;;;;1.90;0.70;;;14.10;99.90;;;;;;4918725;29;20296;-82
2024/02/15 19:30:00;;;;;;;2.13;0.90;;;14.00;99.90;;;;;;4919013;29;20210;-82
2024/02/15 19:32:27;;;;;;;1.00;0.60;;;14.00;99.90;;;;;;4918358;29;20293;-82
2024/02/15 19:34:54;;;;;;;1.00;0.60;;;14.00;99.90;;;;;;4918582;29;20213;-82
2024/02/15 19:37:21;;;;;;;1.43;0.70;;;14.00;99.90;;;;;;4920000;29;20301;-82
2024/02/15 19:39:51;;;;;;;1.57;1.00;;;13.90;99.90;;;;;;4918753;29;20212;-82
2024/02/15 19:42:20;;;;;;;1.43;0.70;;;13.80;99.90;;;;;;4918100;29;20641;-82
2024/02/15 19:44:47;;;;;;;1.43;0.63;;;13.80;99.90;;;;;;4918439;29;20763;-82
2024/02/15 19:47:16;;;;;;;2.63;1.00;;;13.80;99.90;;;;;;4919222;29;20572;-83
2024/02/15 19:49:42;;;;;;;1.30;0.70;;;13.80;99.90;;;;;;4918207;29;20273;-82
2024/02/15 19:52:10;;;;;;;1.63;0.70;;;13.80;99.90;;;;;;4919121;29;20281;-81
2024/02/15 19:54:37;;;;;;;0.80;0.50;;;13.80;99.90;;;;;;4919066;29;20585;-83
2024/02/15 19:57:06;;;;;;;2.30;1.10;;;13.80;99.90;;;;;;4918592;29;20217;-82
2024/02/15 19:59:34;;;;;;;1.50;0.80;;;13.80;99.90;;;;;;4919639;29;20251;-83
2024/02/15 20:02:02;;;;;;;2.40;0.87;;;13.70;99.90;;;;;;4918990;29;20213;-82
2024/02/15 20:04:31;;;;;;;2.07;0.80;;;13.70;99.90;;;;;;4921868;29;20233;-82
2024/02/15 20:06:58;;;;;;;3.37;0.80;;;13.70;99.90;;;;;;4923174;29;20205;-83
2024/02/15 20:09:27;;;;;;;4.77;2.57;;;13.80;99.90;;;;;;4920927;29;20213;-83
2024/02/15 20:11:55;;;;;;;1.33;0.73;;;13.80;99.90;;;;;;4921047;29;20645;-83
2024/02/15 20:14:22;;;;;;;2.10;0.70;;;13.70;99.90;;;;;;4919068;29;20239;-82
2024/02/15 20:16:54;;;;;;;2.37;1.00;;;13.80;99.90;;;;;;4918519;29;20212;-83
2024/02/15 20:19:21;;;;;;;2.20;0.93;;;13.70;99.90;;;;;;4918226;29;20205;-83
2024/02/15 20:21:48;;;;;;;2.27;0.63;;;13.80;99.90;;;;;;4917996;29;20305;-83
2024/02/15 20:24:15;;;;;;;1.43;0.70;;;13.90;99.90;;;;;;4917457;29;20281;-83
2024/02/15 20:26:43;;;;;;;0.70;0.60;;;13.90;99.90;;;;;;4918280;29;20209;-83
2024/02/15 20:29:09;;;;;;;1.10;0.80;;;14.00;99.90;;;;;;4918997;29;20677;-83
2024/02/15 20:31:36;;;;;;;1.37;0.80;;;14.00;99.90;;;;;;4918563;29;20333;-82
2024/02/15 20:34:05;;;;;;;2.00;0.90;;;14.10;99.90;;;;;;4919013;29;20236;-83
2024/02/15 20:36:33;;;;;;;3.27;1.00;;;14.10;99.90;;;;;;4918715;29;20209;-82
2024/02/15 20:39:00;;;;;;;1.57;0.80;;;14.10;99.90;;;;;;4919406;29;20217;-83
2024/02/15 20:41:29;;;;;;;0.90;0.60;;;14.00;99.90;;;;;;4919266;29;20269;-82
2024/02/15 20:43:56;;;;;;;1.23;0.70;;;14.00;99.90;;;;;;4918856;29;20258;-83
2024/02/15 20:46:27;;;;;;;1.53;0.63;;;14.00;99.90;;;;;;4919341;29;20564;-82
2024/02/15 20:48:54;;;;;;;1.60;0.67;;;14.00;99.90;;;;;;4917978;29;20211;-82
2024/02/15 20:51:22;;;;;;;1.93;0.90;;;13.90;99.90;;;;;;4917600;29;20213;-82
2024/02/15 20:53:53;;;;;;;1.40;0.87;;;13.90;99.90;;;;;;4918604;29;20320;-82
2024/02/15 20:56:20;;;;;;;1.30;0.80;;;14.00;99.90;;;;;;4917792;29;20213;-82
2024/02/15 20:58:47;;;;;;;1.10;0.60;;;14.10;99.90;;;;;;4917516;29;20251;-83
2024/02/15 21:01:15;;;;;;;2.10;0.70;;;14.00;99.90;;;;;;4915989;29;20363;-82
2024/02/15 21:03:46;;;;;;;0.77;0.63;;;14.00;99.90;;;;;;4917510;29;20699;-82
2024/02/15 21:06:15;;;;;;;1.20;0.70;;;14.10;99.90;;;;;;4917778;29;20615;-82
2024/02/15 21:08:43;;;;;;;2.80;0.93;;;14.10;99.90;;;;;;4917458;29;20297;-82
2024/02/15 21:11:10;;;;;;;1.03;0.80;;;14.00;99.90;;;;;;4917124;29;20213;-82
2024/02/15 21:13:41;;;;;;;1.10;0.63;;;14.00;99.90;;;;;;4917400;29;20241;-82
2024/02/15 21:16:08;;;;;;;0.90;0.77;;;14.00;99.90;;;;;;4917685;29;20542;-81
2024/02/15 21:18:36;;;;;;;2.73;0.80;;;14.10;99.90;;;;;;4916584;29;20241;-81
2024/02/15 21:21:05;;;;;;;1.43;0.70;;;14.00;99.90;;;;;;4916814;29;20214;-81
